Terminal Aerodrome Forecast
Issued by NWS Topeka, KS

Home | Current Version | Previous Version | Text Only | Print | Product List | Glossary Off
Versions: 1 2 3 4 5 6 7 8 9 10 11 12 13 14 15 16 17 18 19 20 21 22 23 24 25 26

000
FTUS43 KTOP 190500
TAFTOP
TAF
KTOP 190520Z 1906/2006 11003KT 5SM BR SCT020
     FM190800 13005KT 3SM BR SCT007 BKN015
      TEMPO 1910/1913 1SM BR OVC007
     FM191600 17008KT P6SM SCT020
     FM191900 18010KT P6SM FEW025=

USA.gov is the U.S. government's official web portal to all federal, state and local government web resources and services.